KUOX/UOX METAR and TAF weather

Enter ICAO airport designator
Station Type Date Time Source
KUOX METAR 2021/09/20 05:15 UTC NOAA

KUOX 200515Z AUTO 14005KT 10SM CLR 23/23 A2999 RMK AO2 PWINO


Station Type Date Time Source
KUOX Decoded METAR 2021/09/20 05:15 UTC NOAA

Oxford, University-Oxford Airport, MS, United States (KUOX) 34-23-04N 089-32-08W
Sep 20, 2021 - 01:15 AM EDT / 2021.09.20 0515 UTC
Wind: from the SE (140 degrees) at 6 MPH (5 KT):0
Visibility: 10 mile(s):0
Sky conditions: clear
Temperature: 73 F (23 C)
Dew Point: 73 F (23 C)
Relative Humidity: 100%
Pressure (altimeter): 29.99 in. Hg (1015 hPa)
ob: KUOX 200515Z AUTO 14005KT 10SM CLR 23/23 A2999 RMK AO2 PWINO
cycle: 5

Station Type Date Time Source
KUOX TAF UTC NOAA

Error!

Example: see airport list